Time;durP1;ratioP1;P1;durP2;ratioP2;P2;SDS_P1;SDS_P2;PMS_P1;PMS_P2;Temp;Humidity;BMP_temperature;BMP_pressure;BME280_temperature;BME280_humidity;BME280_pressure;Samples;Min_cycle;Max_cycle;Signal;HPM_P1;HPM_P2
2021/09/30 00:00:56;;;;;;;3.17;2.63;;;;;;;32.65;20.51;95091.63;5073736;28;20040;-47
2021/09/30 00:03:23;;;;;;;3.15;2.78;;;;;;;32.69;20.53;95087.69;5074660;28;20052;-49
2021/09/30 00:05:50;;;;;;;4.13;2.75;;;;;;;32.63;20.27;95093.97;5073627;28;20044;-46
2021/09/30 00:08:19;;;;;;;4.72;2.53;;;;;;;32.77;20.18;95088.31;5073812;28;20044;-50
2021/09/30 00:10:59;;;;;;;3.10;2.70;;;;;;;32.68;20.31;95091.56;5073918;28;20048;-47
2021/09/30 00:16:30;;;;;;;3.42;2.80;;;;;;;32.59;20.22;95087.88;5074580;28;20037;-48
2021/09/30 00:33:02;;;;;;;2.95;2.58;;;;;;;32.29;20.93;95078.66;5073752;28;20052;-45
2021/09/30 02:19:07;;;;;;;3.60;2.67;;;;;;;32.85;20.00;95078.97;5044276;28;20200;-51
2021/09/30 02:22:31;;;;;;;3.33;2.85;;;;;;;32.45;19.99;95088.84;5049498;28;20485;-45
2021/09/30 02:35:24;;;;;;;3.22;2.63;;;;;;;32.62;20.23;95089.75;5078399;28;20063;-46
2021/09/30 03:00:24;;;;;;;4.13;2.90;;;;;;;32.37;20.23;95101.72;5075325;28;20043;-45
2021/09/30 03:02:53;;;;;;;3.35;2.60;;;;;;;32.51;19.98;95096.06;5077675;28;20042;-47
2021/09/30 03:05:21;;;;;;;4.53;2.70;;;;;;;32.35;20.44;95079.72;5077716;28;20477;-46
2021/09/30 03:07:52;;;;;;;3.10;2.63;;;;;;;32.41;20.13;95099.72;5037837;28;20060;-47
2021/09/30 03:10:22;;;;;;;5.22;3.22;;;;;;;32.65;20.06;95102.44;5056135;28;20048;-47
2021/09/30 03:12:51;;;;;;;4.45;3.20;;;;;;;32.51;20.28;95098.78;5077358;28;20351;-46
2021/09/30 03:18:25;;;;;;;3.58;2.85;;;;;;;32.70;19.96;95101.97;5043054;28;20048;-47
2021/09/30 03:20:54;;;;;;;5.45;2.92;;;;;;;32.81;19.95;95099.91;5047791;28;20054;-45
2021/09/30 03:23:24;;;;;;;4.32;2.78;;;;;;;32.71;19.70;95100.81;4990587;23;20059;-47
2021/09/30 03:25:52;;;;;;;4.45;2.97;;;;;;;32.72;19.88;95102.34;4991951;28;20062;-48
2021/09/30 03:28:24;;;;;;;6.70;3.30;;;;;;;32.64;19.91;95106.34;4975573;28;20323;-47
2021/09/30 03:30:54;;;;;;;4.97;3.22;;;;;;;32.40;20.13;95108.25;4990805;28;20454;-51
2021/09/30 03:33:22;;;;;;;3.85;2.90;;;;;;;32.30;20.56;95092.94;4990747;28;20043;-48
2021/09/30 03:36:00;;;;;;;6.30;3.47;;;;;;;32.31;20.48;95100.66;4991529;28;20050;-47
2021/09/30 03:38:28;;;;;;;3.63;3.03;;;;;;;32.50;19.97;95096.47;4976366;28;20054;-47
2021/09/30 03:40:56;;;;;;;5.07;3.58;;;;;;;30.32;22.88;95091.78;4982688;28;20053;-49
2021/09/30 03:43:26;;;;;;;7.53;3.67;;;;;;;31.59;21.22;95091.84;4976704;28;20062;-45
2021/09/30 03:45:53;;;;;;;5.75;3.30;;;;;;;31.81;20.93;95095.09;4975245;28;20449;-46
2021/09/30 03:48:24;;;;;;;3.85;3.47;;;;;;;32.40;20.59;95092.78;4986782;28;20066;-49
2021/09/30 03:51:16;;;;;;;4.57;3.47;;;;;;;32.74;19.78;95097.28;4972175;28;20047;-47
2021/09/30 04:01:31;;;;;;;3.95;3.53;;;;;;;32.04;20.56;95097.13;4956451;29;20359;-45
2021/09/30 04:03:58;;;;;;;6.88;3.60;;;;;;;32.73;20.18;95103.88;4980608;28;20363;-47
2021/09/30 04:06:25;;;;;;;5.75;3.83;;;;;;;32.67;19.87;95100.09;4974942;28;20062;-49
2021/09/30 04:08:56;;;;;;;4.00;3.60;;;;;;;32.57;19.92;95095.63;4991119;28;20462;-46
2021/09/30 04:11:23;;;;;;;4.25;3.55;;;;;;;32.58;20.15;95097.16;4990844;28;20059;-48
2021/09/30 04:13:52;;;;;;;5.65;3.40;;;;;;;32.66;19.97;95099.34;4990438;28;20046;-46
2021/09/30 04:16:19;;;;;;;4.22;3.67;;;;;;;31.88;21.14;95101.19;4975033;28;20527;-45
2021/09/30 04:18:46;;;;;;;4.80;4.07;;;;;;;31.97;20.80;95103.38;4990780;28;20062;-46
2021/09/30 04:21:13;;;;;;;4.97;4.07;;;;;;;32.50;20.63;95099.94;4990834;28;20057;-49
2021/09/30 04:23:40;;;;;;;6.15;3.80;;;;;;;32.77;20.51;95097.22;5001340;28;20063;-44
2021/09/30 04:26:07;;;;;;;11.93;4.40;;;;;;;31.97;20.88;95102.59;4975044;28;20057;-43
2021/09/30 04:28:36;;;;;;;9.02;4.88;;;;;;;31.56;21.94;95098.06;4970523;28;20047;-44
2021/09/30 04:31:04;;;;;;;10.80;4.47;;;;;;;32.96;20.55;95101.19;4957644;28;20481;-58
2021/09/30 04:33:37;;;;;;;6.85;4.20;;;;;;;33.63;20.56;95104.66;4969929;28;20050;-46
2021/09/30 04:36:04;;;;;;;7.05;4.88;;;;;;;34.30;19.25;95105.22;4983354;28;20066;-47
2021/09/30 04:38:31;;;;;;;10.40;4.68;;;;;;;35.14;18.71;95106.41;4972476;28;20451;-44
2021/09/30 04:40:58;;;;;;;6.30;3.60;;;;;;;36.57;17.20;95105.91;4975106;28;20051;-43
2021/09/30 04:43:25;;;;;;;8.20;4.40;;;;;;;35.24;18.09;95107.31;4961948;28;20074;-44
2021/09/30 04:45:53;;;;;;;4.75;4.20;;;;;;;34.43;18.76;95108.06;4994594;28;20054;-45
2021/09/30 04:48:20;;;;;;;6.82;4.50;;;;;;;33.85;19.06;95109.69;4991293;28;20058;-44
2021/09/30 04:50:52;;;;;;;6.88;4.82;;;;;;;33.83;19.05;95112.00;4976472;28;20046;-44
2021/09/30 04:53:19;;;;;;;6.82;5.10;;;;;;;33.98;18.72;95118.72;5002078;28;20062;-45
2021/09/30 04:55:47;;;;;;;5.88;5.03;;;;;;;33.70;19.04;95115.34;4994533;28;20046;-45
2021/09/30 04:58:14;;;;;;;7.70;5.22;;;;;;;33.81;18.82;95119.78;4994117;28;20053;-42
2021/09/30 05:00:41;;;;;;;8.15;5.63;;;;;;;33.70;18.79;95123.50;4994477;28;20055;-46
2021/09/30 05:03:15;;;;;;;7.10;5.60;;;;;;;33.46;19.11;95121.25;4993775;28;20047;-44
2021/09/30 05:05:42;;;;;;;6.15;5.55;;;;;;;33.51;19.30;95129.66;4993122;28;20054;-44
2021/09/30 05:08:09;;;;;;;7.28;5.53;;;;;;;33.36;19.07;95133.81;4994247;28;20051;-43
2021/09/30 05:10:44;;;;;;;7.50;6.20;;;;;;;33.55;18.86;95135.78;4994261;28;20370;-43
2021/09/30 05:13:17;;;;;;;10.80;6.43;;;;;;;33.32;19.37;95127.72;4964084;28;20058;-43
2021/09/30 05:15:50;;;;;;;7.30;5.85;;;;;;;33.14;19.26;95133.41;4978714;28;20058;-47
2021/09/30 05:18:50;;;;;;;7.88;5.80;;;;;;;33.21;19.25;95137.91;4993877;28;20047;-43
2021/09/30 05:21:17;;;;;;;8.77;5.85;;;;;;;33.13;19.29;95141.94;4993785;28;20054;-44
2021/09/30 05:23:44;;;;;;;6.72;5.82;;;;;;;33.06;19.67;95138.19;5006914;28;20064;-43
2021/09/30 05:26:11;;;;;;;8.40;6.07;;;;;;;32.76;19.62;95141.69;4993628;28;20491;-44
2021/09/30 05:28:39;;;;;;;6.80;6.10;;;;;;;32.42;20.39;95149.94;4993776;28;20365;-42
2021/09/30 05:31:07;;;;;;;9.00;5.78;;;;;;;32.65;20.01;95151.16;4988956;28;20043;-44
2021/09/30 05:34:14;;;;;;;8.82;6.45;;;;;;;31.96;20.69;95145.09;4976106;28;20050;-42
2021/09/30 05:36:41;;;;;;;8.75;5.85;;;;;;;32.13;21.01;95148.75;4972067;28;20061;-44
2021/09/30 05:39:08;;;;;;;6.75;5.88;;;;;;;31.81;21.16;95155.34;4984833;28;20095;-43
2021/09/30 05:41:35;;;;;;;7.28;6.10;;;;;;;32.01;20.81;95152.00;4973635;28;20058;-47
2021/09/30 05:44:10;;;;;;;8.98;6.53;;;;;;;31.36;21.60;95146.50;4980981;28;20047;-46
2021/09/30 05:46:51;;;;;;;10.57;6.38;;;;;;;31.34;21.60;95150.78;4976885;28;20055;-42
2021/09/30 05:49:23;;;;;;;9.48;6.03;;;;;;;31.56;21.63;95157.50;4978076;28;20347;-43
2021/09/30 05:51:59;;;;;;;7.63;5.60;;;;;;;32.17;20.83;95154.88;4997433;28;20059;-42
2021/09/30 05:54:53;;;;;;;9.15;6.45;;;;;;;30.65;22.39;95161.31;4992104;28;20458;-42
2021/09/30 05:57:26;;;;;;;8.20;6.18;;;;;;;31.25;21.51;95157.44;4989467;28;20058;-43
2021/09/30 05:59:54;;;;;;;9.13;6.75;;;;;;;30.34;22.62;95162.25;4958769;29;20374;-42
2021/09/30 06:10:40;;;;;;;8.73;6.93;;;;;;;30.84;22.40;95167.38;4979401;28;20442;-43
2021/09/30 06:13:11;;;;;;;7.53;6.82;;;;;;;30.91;22.42;95170.00;4976711;28;20054;-43
2021/09/30 06:15:41;;;;;;;;;;;;;;;30.98;22.35;95167.28;4976643;28;20466;-43
2021/09/30 06:18:09;;;;;;;11.85;9.57;;;;;;;30.80;22.26;95162.00;4976755;28;19925;-43
2021/09/30 06:20:40;;;;;;;9.60;7.40;;;;;;;30.77;22.41;95162.03;4976377;28;20043;-42
2021/09/30 06:23:09;;;;;;;9.07;7.60;;;;;;;32.11;21.54;95170.03;5006046;28;20088;-43
2021/09/30 06:25:39;;;;;;;7.72;6.60;;;;;;;32.48;21.14;95169.94;4987869;28;20055;-44
2021/09/30 06:28:08;;;;;;;;;;;;;;;32.86;20.23;95172.53;4993277;28;20453;-45
2021/09/30 06:30:38;;;;;;;7.45;6.63;;;;;;;33.00;20.46;95172.31;4990726;28;19921;-46
2021/09/30 06:33:25;;;;;;;7.03;6.43;;;;;;;33.04;19.94;95173.00;4965068;28;20054;-45
2021/09/30 06:36:11;;;;;;;7.32;6.22;;;;;;;32.92;20.15;95170.13;4976914;28;20046;-43
2021/09/30 06:38:39;;;;;;;8.32;6.53;;;;;;;33.34;19.54;95169.47;4977401;28;20058;-45
2021/09/30 06:41:06;;;;;;;7.38;6.25;;;;;;;33.72;18.89;95172.63;4992374;28;20058;-44
2021/09/30 06:43:33;;;;;;;6.55;5.95;;;;;;;33.45;18.97;95174.69;4992202;28;20055;-44
2021/09/30 06:46:20;;;;;;;7.35;6.63;;;;;;;33.53;19.29;95178.78;4968219;28;20386;-45
2021/09/30 06:48:56;;;;;;;7.97;6.10;;;;;;;33.40;19.39;95177.88;4992374;28;20070;-45
2021/09/30 06:51:50;;;;;;;7.38;5.85;;;;;;;33.75;18.82;95172.97;4979922;28;20461;-45
2021/09/30 06:54:18;;;;;;;6.03;5.50;;;;;;;33.97;18.82;95182.25;5008662;28;20046;-44
2021/09/30 06:57:05;;;;;;;7.07;5.45;;;;;;;34.06;18.52;95174.31;4976712;28;20063;-44
2021/09/30 06:59:50;;;;;;;6.82;5.85;;;;;;;34.33;18.42;95183.06;4976981;28;20043;-44
2021/09/30 07:02:57;;;;;;;6.72;5.70;;;;;;;34.69;17.99;95187.75;4994057;28;20049;-45
2021/09/30 07:05:50;;;;;;;6.22;5.40;;;;;;;34.44;18.10;95191.03;4993269;28;20104;-43
2021/09/30 07:08:21;;;;;;;6.68;5.63;;;;;;;34.97;17.34;95182.88;4975741;28;20484;-43
2021/09/30 07:10:49;;;;;;;6.43;5.22;;;;;;;34.92;17.50;95190.38;4970508;28;20059;-43
2021/09/30 07:13:16;;;;;;;6.28;5.28;;;;;;;35.07;17.21;95185.34;4957412;29;20055;-43
2021/09/30 07:15:43;;;;;;;6.72;5.53;;;;;;;34.65;17.67;95187.06;4969442;28;20038;-44
2021/09/30 07:18:18;;;;;;;6.63;5.40;;;;;;;34.13;18.31;95185.06;4976609;28;20073;-43
2021/09/30 07:20:46;;;;;;;6.93;6.22;;;;;;;34.32;17.79;95186.97;4976631;28;20403;-43
2021/09/30 07:23:13;;;;;;;6.95;6.07;;;;;;;34.43;17.56;95202.28;4990210;28;20066;-43
2021/09/30 07:25:41;;;;;;;7.78;6.97;;;;;;;34.39;17.76;95190.75;4983506;28;20057;-44
2021/09/30 07:28:09;;;;;;;8.85;7.95;;;;;;;34.73;17.24;95191.16;4976509;28;20047;-45
2021/09/30 07:30:36;;;;;;;16.10;6.40;;;;;;;34.96;16.91;95198.41;4976534;28;20050;-44
2021/09/30 07:33:05;;;;;;;8.18;6.03;;;;;;;34.96;16.96;95187.56;4976266;28;20385;-44
2021/09/30 07:35:32;;;;;;;8.02;6.18;;;;;;;34.50;17.31;95194.00;4975926;28;20381;-44
2021/09/30 07:37:59;;;;;;;6.85;5.55;;;;;;;34.59;17.33;95194.16;4975956;28;20062;-44
2021/09/30 07:40:26;;;;;;;7.47;5.63;;;;;;;35.23;16.71;95203.59;4976330;28;20369;-44
2021/09/30 07:42:53;;;;;;;6.82;4.90;;;;;;;35.18;16.42;95204.13;4976063;28;20047;-44
2021/09/30 07:45:21;;;;;;;11.15;6.38;;;;;;;35.79;16.00;95185.09;4975843;28;20055;-42
2021/09/30 07:47:48;;;;;;;7.65;5.25;;;;;;;35.74;15.82;95193.00;4975876;28;20050;-45
2021/09/30 07:50:15;;;;;;;6.40;5.57;;;;;;;35.82;16.04;95194.34;4976143;28;20051;-44
2021/09/30 07:52:42;;;;;;;7.57;5.30;;;;;;;35.43;16.03;95196.16;4985969;28;20449;-44
2021/09/30 07:55:10;;;;;;;6.38;5.18;;;;;;;34.68;16.78;95191.66;4988015;28;20059;-46
2021/09/30 07:57:38;;;;;;;8.63;4.88;;;;;;;34.53;17.04;95198.56;4975681;28;20046;-44
2021/09/30 08:00:06;;;;;;;7.07;5.10;;;;;;;34.85;16.66;95206.81;4976045;28;20050;-44
2021/09/30 08:02:55;;;;;;;7.18;4.93;;;;;;;34.82;16.74;95196.75;4935009;29;20050;-44
2021/09/30 08:05:22;;;;;;;5.78;4.40;;;;;;;34.85;16.84;95201.38;4932408;29;20525;-46
2021/09/30 08:07:50;;;;;;;5.30;4.78;;;;;;;34.59;16.66;95199.59;4932502;29;20051;-44
2021/09/30 08:10:17;;;;;;;8.30;4.57;;;;;;;34.49;17.18;95195.94;4935354;29;20062;-48
2021/09/30 08:12:44;;;;;;;4.43;3.85;;;;;;;34.51;17.04;95209.09;4935086;29;20514;-44
2021/09/30 08:15:11;;;;;;;5.75;4.60;;;;;;;34.63;16.75;95190.22;4934961;29;20058;-44
2021/09/30 08:17:38;;;;;;;5.55;4.00;;;;;;;34.45;16.70;95203.41;4934201;29;20048;-45
2021/09/30 08:20:06;;;;;;;5.45;4.35;;;;;;;34.69;16.37;95187.75;4935161;29;20055;-44
2021/09/30 08:22:33;;;;;;;8.20;4.30;;;;;;;34.68;16.44;95197.09;4943633;29;20051;-44
2021/09/30 08:25:00;;;;;;;6.70;4.50;;;;;;;34.85;16.56;95190.50;4949029;29;20059;-43
2021/09/30 08:27:27;;;;;;;8.52;5.00;;;;;;;35.01;16.13;95208.00;4934597;29;20052;-46
2021/09/30 08:29:55;;;;;;;8.63;5.50;;;;;;;34.94;16.34;95192.66;4925599;29;20055;-44
2021/09/30 08:32:23;;;;;;;7.78;5.03;;;;;;;34.67;16.58;95202.94;4915952;29;20052;-45
2021/09/30 08:34:50;;;;;;;6.75;4.50;;;;;;;34.81;16.35;95197.19;4966170;28;20047;-44
2021/09/30 08:37:17;;;;;;;6.55;4.80;;;;;;;34.92;16.33;95201.22;4975388;28;20054;-47
2021/09/30 08:39:44;;;;;;;12.30;6.95;;;;;;;34.91;16.41;95202.41;4974881;28;20450;-44
2021/09/30 08:42:11;;;;;;;9.07;6.93;;;;;;;35.02;16.38;95198.66;4974741;28;20059;-44
2021/09/30 08:44:39;;;;;;;8.80;6.15;;;;;;;34.83;16.36;95192.84;4975700;28;20361;-44
2021/09/30 08:47:06;;;;;;;6.13;5.32;;;;;;;34.64;16.40;95193.69;4975472;28;20054;-44
2021/09/30 08:49:34;;;;;;;6.10;4.93;;;;;;;34.71;16.51;95196.25;4975424;28;20050;-43
2021/09/30 08:52:01;;;;;;;6.38;5.03;;;;;;;34.97;16.28;95196.47;4979612;28;20051;-43
2021/09/30 08:54:28;;;;;;;7.13;4.72;;;;;;;34.87;16.30;95192.78;4994721;28;20050;-43
2021/09/30 08:57:03;;;;;;;7.45;5.50;;;;;;;34.83;16.48;95192.09;4986098;28;20047;-43
2021/09/30 08:59:34;;;;;;;6.45;4.82;;;;;;;34.73;16.47;95188.44;4975361;28;20438;-43
2021/09/30 09:02:21;;;;;;;7.80;5.57;;;;;;;34.62;16.78;95204.22;4975033;28;20055;-45
2021/09/30 09:04:59;;;;;;;6.85;5.65;;;;;;;34.85;16.57;95201.38;4975383;28;20401;-45
2021/09/30 09:07:29;;;;;;;6.18;5.55;;;;;;;34.45;16.83;95202.63;4974976;28;20480;-47
2021/09/30 09:09:59;;;;;;;6.57;5.10;;;;;;;34.54;16.60;95198.16;4975400;28;20410;-44
2021/09/30 09:12:31;;;;;;;9.75;5.68;;;;;;;34.59;16.67;95194.16;4990117;28;20536;-44
2021/09/30 09:14:59;;;;;;;7.35;5.32;;;;;;;34.27;17.03;95209.16;4975461;28;20047;-44
2021/09/30 09:17:27;;;;;;;6.53;5.43;;;;;;;34.41;16.83;95193.81;4974992;28;20046;-44
2021/09/30 09:19:59;;;;;;;8.88;5.75;;;;;;;34.59;16.53;95194.16;4975283;28;20043;-44
2021/09/30 09:22:31;;;;;;;7.68;5.82;;;;;;;34.48;16.66;95193.66;4971932;28;20054;-44
2021/09/30 09:25:01;;;;;;;8.93;5.68;;;;;;;34.67;16.35;95190.13;4994467;28;20054;-46
2021/09/30 09:27:49;;;;;;;7.78;5.10;;;;;;;34.54;16.67;95197.41;4981731;28;20075;-44
2021/09/30 09:30:43;;;;;;;6.07;5.47;;;;;;;34.41;16.98;95196.53;4977801;28;20058;-45
2021/09/30 09:33:10;;;;;;;7.68;5.00;;;;;;;34.51;16.98;95199.00;4978632;28;20046;-45
2021/09/30 09:35:55;;;;;;;7.35;5.20;;;;;;;34.28;16.88;95202.56;4978412;28;20058;-48
2021/09/30 09:38:45;;;;;;;5.30;4.80;;;;;;;34.29;16.60;95204.09;4978263;28;20050;-45
2021/09/30 09:41:25;;;;;;;5.07;4.40;;;;;;;34.58;16.56;95198.06;4978549;28;20059;-45
2021/09/30 09:43:55;;;;;;;7.88;6.90;;;;;;;34.61;16.64;95194.50;4978411;28;20050;-45
2021/09/30 09:46:29;;;;;;;7.82;5.13;;;;;;;34.46;16.74;95212.31;4978058;28;20058;-45
2021/09/30 09:49:01;;;;;;;6.13;4.90;;;;;;;34.23;16.77;95205.75;4978092;28;20043;-45
2021/09/30 09:51:37;;;;;;;5.82;4.18;;;;;;;34.78;16.61;95204.22;4976578;28;20057;-51
2021/09/30 09:54:09;;;;;;;8.55;4.30;;;;;;;34.63;16.63;95200.31;4986497;28;20042;-45
2021/09/30 09:56:36;;;;;;;7.22;4.68;;;;;;;34.63;16.46;95211.94;4987777;28;20058;-45
2021/09/30 09:59:03;;;;;;;7.28;4.13;;;;;;;34.50;16.67;95202.91;4977204;28;20050;-46
2021/09/30 10:01:41;;;;;;;4.93;3.97;;;;;;;34.54;16.62;95208.25;4977728;28;20047;-45
2021/09/30 10:04:08;;;;;;;6.15;4.07;;;;;;;34.55;16.56;95209.78;4977989;28;20126;-47
2021/09/30 10:06:37;;;;;;;5.55;4.00;;;;;;;34.60;16.41;95206.56;4977758;28;20058;-48
2021/09/30 10:09:08;;;;;;;4.72;4.10;;;;;;;34.75;16.50;95194.22;4977732;28;20450;-46
2021/09/30 10:11:35;;;;;;;7.70;3.90;;;;;;;34.78;16.34;95195.31;4977744;28;20393;-46
2021/09/30 10:14:07;;;;;;;6.20;3.97;;;;;;;34.73;16.44;95184.97;4978179;28;20077;-47
2021/09/30 10:16:36;;;;;;;4.50;3.80;;;;;;;34.72;16.33;95191.56;4977550;28;20508;-47
2021/09/30 10:19:08;;;;;;;4.38;3.75;;;;;;;34.69;16.60;95190.47;4977437;28;20058;-46
2021/09/30 10:21:37;;;;;;;4.57;3.92;;;;;;;34.43;16.69;95191.44;4978653;28;20046;-45
2021/09/30 10:24:15;;;;;;;7.22;3.95;;;;;;;34.62;16.32;95198.78;4996884;28;20061;-46
2021/09/30 10:26:50;;;;;;;4.70;4.03;;;;;;;34.47;16.54;95192.13;4992980;28;20051;-46
2021/09/30 10:29:45;;;;;;;4.38;3.28;;;;;;;34.47;16.69;95197.56;4992482;28;20058;-47
2021/09/30 10:32:14;;;;;;;6.97;3.55;;;;;;;34.62;16.61;95193.34;4977414;28;20050;-48
2021/09/30 10:34:43;;;;;;;6.22;4.13;;;;;;;34.11;16.93;95190.13;4992389;28;20059;-50
2021/09/30 10:37:20;;;;;;;5.82;3.58;;;;;;;34.43;16.58;95196.88;4976809;28;20054;-49
2021/09/30 10:40:16;;;;;;;7.07;3.75;;;;;;;34.39;16.71;95191.53;4976710;28;20042;-46
2021/09/30 10:42:58;;;;;;;5.05;3.15;;;;;;;34.31;16.91;95195.53;4972099;28;20047;-47
2021/09/30 10:45:26;;;;;;;;;;;;;;;33.85;17.25;95199.16;4992412;28;20077;-45
2021/09/30 10:47:55;;;;;;;5.47;3.50;;;;;;;34.16;17.24;95189.63;4976890;28;20313;-46
2021/09/30 10:50:46;;;;;;;4.53;3.13;;;;;;;33.96;17.16;95194.28;4991687;28;20500;-49
2021/09/30 10:53:13;;;;;;;3.70;3.00;;;;;;;34.14;16.97;95197.44;4991370;28;20061;-47
2021/09/30 10:55:40;;;;;;;5.00;3.50;;;;;;;34.25;16.89;95197.19;4996142;28;20058;-45
2021/09/30 10:58:24;;;;;;;4.53;3.30;;;;;;;34.26;16.79;95183.22;4982104;28;20043;-45
2021/09/30 11:00:55;;;;;;;8.80;3.13;;;;;;;34.11;17.13;95192.84;4975873;28;20050;-42
2021/09/30 11:03:23;;;;;;;3.20;2.90;;;;;;;34.13;17.04;95190.47;4976858;28;20450;-44
2021/09/30 11:06:09;;;;;;;3.45;2.90;;;;;;;34.40;16.56;95189.56;4976791;28;20062;-43
2021/09/30 11:08:36;;;;;;;5.75;3.25;;;;;;;34.20;16.85;95184.91;4976268;28;20061;-43
2021/09/30 11:11:04;;;;;;;3.20;2.80;;;;;;;34.26;16.58;95182.44;4991857;28;20043;-54
2021/09/30 11:13:50;;;;;;;5.22;3.13;;;;;;;34.48;16.82;95177.38;4976669;28;20477;-44
2021/09/30 11:16:20;;;;;;;4.80;2.63;;;;;;;34.66;16.38;95177.75;4976783;28;20047;-44
2021/09/30 11:18:54;;;;;;;3.33;2.90;;;;;;;34.67;16.56;95178.50;4976103;28;20049;-54
2021/09/30 11:21:33;;;;;;;6.38;2.88;;;;;;;34.23;17.18;95186.78;4975664;28;20059;-48
2021/09/30 11:24:19;;;;;;;4.38;3.03;;;;;;;34.54;16.65;95187.28;4996061;28;20062;-46
2021/09/30 11:26:49;;;;;;;7.50;3.20;;;;;;;33.96;17.02;95192.34;4993307;28;20050;-47
2021/09/30 11:29:22;;;;;;;4.65;2.95;;;;;;;33.80;17.13;95192.22;4975076;28;20046;-49
2021/09/30 11:31:57;;;;;;;6.57;3.00;;;;;;;34.36;16.71;95175.31;4957046;29;20051;-47
2021/09/30 11:34:29;;;;;;;5.28;2.90;;;;;;;34.27;16.61;95173.88;4957184;29;20055;-46
2021/09/30 11:36:59;;;;;;;3.58;2.97;;;;;;;34.51;16.41;95171.09;4960327;28;20046;-49
2021/09/30 11:39:34;;;;;;;3.47;2.53;;;;;;;34.30;16.32;95178.47;4972792;28;20065;-46
2021/09/30 11:42:01;;;;;;;4.03;2.80;;;;;;;34.67;16.09;95168.41;4956858;29;20058;-47
2021/09/30 11:44:28;;;;;;;28.98;25.95;;;;;;;34.39;16.29;95167.09;4956908;29;20061;-47
2021/09/30 11:46:59;;;;;;;6.60;5.85;;;;;;;34.60;16.36;95172.03;4959501;28;20050;-48
2021/09/30 11:49:27;;;;;;;;;;;;;;;34.13;16.48;95163.34;4976216;28;20081;-46
2021/09/30 11:51:56;;;;;;;6.40;3.00;;;;;;;34.61;16.17;95175.50;4978769;28;20240;-50
2021/09/30 11:54:25;;;;;;;3.95;2.85;;;;;;;34.17;16.23;95174.88;4995319;28;20062;-46
2021/09/30 11:56:54;;;;;;;4.65;3.55;;;;;;;34.06;16.97;95174.31;4992966;28;20049;-46
2021/09/30 11:59:26;;;;;;;5.35;3.13;;;;;;;34.57;16.72;95170.16;4975729;28;20050;-46
2021/09/30 12:01:58;;;;;;;4.82;2.83;;;;;;;34.67;16.77;95165.69;4975816;28;20119;-48
2021/09/30 12:04:58;;;;;;;6.07;3.30;;;;;;;34.70;16.57;95173.00;4976010;28;20058;-52
2021/09/30 12:07:28;;;;;;;4.07;2.92;;;;;;;34.54;16.84;95167.53;4974713;28;20057;-48
2021/09/30 12:09:57;;;;;;;4.75;3.38;;;;;;;34.68;16.88;95167.22;4975659;28;20085;-47
2021/09/30 12:12:32;;;;;;;4.28;2.90;;;;;;;34.60;16.85;95176.69;4975706;28;20049;-47
2021/09/30 12:15:00;;;;;;;6.07;3.17;;;;;;;34.58;16.92;95173.66;4975937;28;20050;-48
2021/09/30 12:17:33;;;;;;;4.78;3.10;;;;;;;34.47;17.08;95181.28;4975351;28;20378;-45
2021/09/30 12:20:00;;;;;;;4.15;3.08;;;;;;;34.41;17.13;95178.28;4975522;28;20074;-50
2021/09/30 12:22:34;;;;;;;4.60;3.22;;;;;;;34.23;17.35;95172.44;4983800;28;20065;-45
2021/09/30 12:25:10;;;;;;;4.47;3.17;;;;;;;34.31;17.13;95180.00;4995292;28;20126;-46
2021/09/30 12:27:40;;;;;;;4.53;3.03;;;;;;;34.15;17.49;95179.97;4987460;28;20062;-48
2021/09/30 12:30:11;;;;;;;5.38;2.67;;;;;;;34.26;17.11;95177.78;4975498;28;20046;-48
2021/09/30 12:32:42;;;;;;;5.22;3.00;;;;;;;34.05;17.44;95178.22;4975886;28;20047;-45
2021/09/30 12:35:31;;;;;;;4.00;2.90;;;;;;;34.06;17.32;95176.28;4976223;28;20059;-45
2021/09/30 12:38:01;;;;;;;5.75;3.10;;;;;;;34.33;17.06;95171.44;4975216;28;20058;-46
2021/09/30 12:40:39;;;;;;;4.88;3.38;;;;;;;34.28;17.27;95171.94;4975279;28;20063;-49
2021/09/30 12:43:16;;;;;;;4.80;3.10;;;;;;;34.16;17.51;95167.94;4975678;28;20377;-50
2021/09/30 12:46:07;;;;;;;5.55;3.50;;;;;;;34.27;16.78;95173.88;4972290;28;20084;-46
2021/09/30 12:48:37;;;;;;;;;;;;;;;34.07;17.21;95180.50;4975730;28;20051;-48
2021/09/30 12:51:05;;;;;;;5.82;3.20;;;;;;;34.29;17.23;95166.09;4975407;28;19914;-46
2021/09/30 12:53:41;;;;;;;4.30;3.40;;;;;;;34.41;16.94;95166.69;4992088;28;20054;-47
2021/09/30 12:56:10;;;;;;;4.25;3.58;;;;;;;34.35;17.35;95168.34;4993481;28;20058;-47
2021/09/30 12:58:39;;;;;;;5.00;3.33;;;;;;;34.10;17.38;95169.63;4975271;28;20039;-50
2021/09/30 13:01:33;;;;;;;4.88;3.70;;;;;;;34.31;17.31;95173.81;4975367;28;20685;-47
2021/09/30 13:04:12;;;;;;;5.90;4.13;;;;;;;34.30;17.26;95178.47;4978109;28;20129;-46
2021/09/30 13:06:48;;;;;;;7.25;3.53;;;;;;;33.93;17.71;95176.16;4978805;28;20370;-46
2021/09/30 13:09:21;;;;;;;6.30;3.80;;;;;;;34.11;17.27;95176.56;4993892;28;20042;-46
2021/09/30 13:11:59;;;;;;;4.40;3.53;;;;;;;33.88;17.31;95176.63;4978794;28;20541;-48
2021/09/30 13:14:36;;;;;;;3.50;3.10;;;;;;;34.25;17.29;95175.50;4978970;28;20047;-46
2021/09/30 13:17:06;;;;;;;8.95;4.15;;;;;;;34.10;17.19;95180.47;4978464;28;20043;-47
2021/09/30 13:20:00;;;;;;;4.10;3.60;;;;;;;34.01;17.41;95172.09;4978688;28;20053;-45
2021/09/30 13:22:41;;;;;;;5.80;3.63;;;;;;;34.04;17.57;95171.28;4984798;28;20369;-52
2021/09/30 13:25:15;;;;;;;4.22;3.63;;;;;;;34.00;17.32;95176.75;4998100;28;20536;-46
2021/09/30 13:27:44;;;;;;;6.05;3.28;;;;;;;34.08;17.27;95177.38;4984934;28;20450;-46
2021/09/30 13:30:30;;;;;;;5.93;3.38;;;;;;;34.05;17.14;95177.47;4978641;28;20362;-46
2021/09/30 13:32:59;;;;;;;6.25;3.30;;;;;;;33.82;17.23;95175.53;4978719;28;20478;-46
2021/09/30 13:35:30;;;;;;;4.63;3.35;;;;;;;34.17;17.06;95174.13;4977671;28;20390;-47
2021/09/30 13:37:58;;;;;;;5.00;3.30;;;;;;;33.77;17.37;95162.47;4978053;28;20049;-46
2021/09/30 13:40:26;;;;;;;4.10;3.28;;;;;;;33.91;17.45;95162.25;4978397;28;20492;-44
2021/09/30 13:42:53;;;;;;;4.50;3.20;;;;;;;33.95;17.35;95162.94;4978483;28;20081;-50
2021/09/30 13:45:21;;;;;;;3.60;3.30;;;;;;;34.10;17.37;95164.19;4978420;28;20138;-47
2021/09/30 13:47:49;;;;;;;4.90;3.40;;;;;;;33.83;17.38;95158.91;4977850;28;20051;-45
2021/09/30 13:50:19;;;;;;;3.40;3.10;;;;;;;33.75;17.89;95159.41;4978262;28;20060;-49
2021/09/30 13:52:47;;;;;;;3.60;3.00;;;;;;;33.76;17.92;95153.59;4988828;28;20050;-52
2021/09/30 13:55:16;;;;;;;4.47;3.38;;;;;;;33.67;17.97;95156.09;4997418;28;20345;-45
2021/09/30 13:57:44;;;;;;;6.53;2.90;;;;;;;33.89;17.66;95159.94;4980924;28;20050;-45
2021/09/30 14:00:14;;;;;;;5.55;3.22;;;;;;;33.47;18.27;95156.06;4978127;28;20454;-47
2021/09/30 14:02:46;;;;;;;3.72;2.92;;;;;;;33.99;17.71;95150.06;4978121;28;20058;-44
2021/09/30 14:05:15;;;;;;;3.67;3.30;;;;;;;34.09;17.66;95154.50;4977471;28;20078;-45
2021/09/30 14:07:42;;;;;;;3.85;3.00;;;;;;;33.99;17.77;95155.50;4977269;28;20054;-45
2021/09/30 14:10:13;;;;;;;6.07;3.50;;;;;;;33.78;17.63;95164.00;4977922;28;20050;-45
2021/09/30 14:12:42;;;;;;;5.07;2.90;;;;;;;33.78;17.92;95162.06;4977983;28;20063;-45
2021/09/30 14:15:09;;;;;;;4.53;3.00;;;;;;;33.69;18.02;95151.78;4977339;28;20047;-46
2021/09/30 14:17:39;;;;;;;4.13;2.80;;;;;;;33.97;17.30;95160.56;4976811;28;20392;-45
2021/09/30 14:20:08;;;;;;;3.35;3.05;;;;;;;34.09;17.21;95165.34;4977719;28;20058;-45
2021/09/30 14:22:36;;;;;;;3.45;2.92;;;;;;;33.69;18.06;95157.19;4982519;28;20067;-46
2021/09/30 14:25:04;;;;;;;5.28;3.70;;;;;;;33.73;17.80;95155.19;4992374;28;20369;-46
2021/09/30 14:27:31;;;;;;;6.20;3.15;;;;;;;34.07;17.46;95158.81;4997963;28;20043;-46
2021/09/30 14:29:58;;;;;;;5.28;3.17;;;;;;;33.81;17.76;95155.03;4977619;28;20051;-47
2021/09/30 14:32:25;;;;;;;6.05;3.67;;;;;;;33.81;17.80;95160.47;4977069;28;20055;-45
2021/09/30 14:34:53;;;;;;;4.35;3.00;;;;;;;33.89;17.99;95164.63;4977528;28;20046;-44
2021/09/30 14:37:20;;;;;;;4.20;3.30;;;;;;;33.58;18.22;95162.06;4977127;28;20047;-45
2021/09/30 14:39:47;;;;;;;4.85;3.60;;;;;;;33.98;17.71;95156.66;4977678;28;20386;-45
2021/09/30 14:42:14;;;;;;;6.15;3.35;;;;;;;33.92;18.23;95163.78;4977591;28;20050;-45
2021/09/30 14:44:42;;;;;;;4.68;3.97;;;;;;;33.89;17.92;95162.66;4977203;28;20042;-44
2021/09/30 14:47:09;;;;;;;6.70;3.53;;;;;;;33.88;18.21;95160.38;4976200;28;20055;-46
2021/09/30 14:49:39;;;;;;;6.13;3.65;;;;;;;34.17;17.85;95158.63;4976872;28;20050;-46